WetterOnline ( https://www.wetteronline.de )

Wetter aktuell Freiburg

Aktuelles Wetter: Freiburg/Flugplatz (236m)

6-stündlich | Neueste Meldungen
Ortszeit Temperatur Wetter
So, 20.10. 20:00 14.2° C bewölkt
So, 20.10. 14:00 16.4° C bedeckt
So, 20.10. 8:00 11.0° C Nebel
So, 20.10. 2:00 12.3° C bewölkt
Sa, 19.10. 20:00 13.1° C leichter Regen
Sa, 19.10. 14:00 15.3° C wolkig
Sa, 19.10. 8:00 13.4° C leichter Regen
Sa, 19.10. 2:00 13.0° C leichter Regen
Ortszeit Temperatur Wetter
So, 20.10. 23:00 14.5° C leichter Regen
So, 20.10. 22:50 14.5° C leichter Regen
So, 20.10. 22:40 14.4° C bedeckt
So, 20.10. 22:30 12.9° C bedeckt
So, 20.10. 22:20 12.9° C bedeckt
So, 20.10. 22:10 13.4° C wolkig
So, 20.10. 22:00 14.2° C wolkig
So, 20.10. 21:30 14.2° C bedeckt
So, 20.10. 21:00 14.3° C wolkig
So, 20.10. 20:30 14.1° C bewölkt
So, 20.10. 20:00 14.2° C bewölkt
Ortszeit Relative Feuchte Sichtweite
So, 20.10. 20:00 93% 19 km
So, 20.10. 14:00 71% 45 km
So, 20.10. 8:00 99% <100 m
So, 20.10. 2:00 98% 4.8 km
Sa, 19.10. 20:00 95% 5.0 km
Sa, 19.10. 14:00 84% 40 km
Sa, 19.10. 8:00 81% 26 km
Sa, 19.10. 2:00 84% 30 km
Ortszeit Relative Feuchte Sichtweite
So, 20.10. 23:00 95% 8 km
So, 20.10. 22:50 95% -
So, 20.10. 22:40 96% -
So, 20.10. 22:30 96% 7 km
So, 20.10. 22:20 96% -
So, 20.10. 22:10 96% -
So, 20.10. 22:00 95% 10 km
So, 20.10. 21:30 95% 13 km
So, 20.10. 21:00 96% 14 km
So, 20.10. 20:30 95% 22 km
So, 20.10. 20:00 93% 19 km
Ortszeit Niederschlagsmenge Niederschlagsart
So, 20.10. 20:00 0.0 l/m2 in 12 Std. -
So, 20.10. 14:00 0.0 l/m2 in 6 Std. -
So, 20.10. 8:00 6 l/m2 in 12 Std. Regen
So, 20.10. 2:00 6 l/m2 in 6 Std. Regen
Sa, 19.10. 20:00 9 l/m2 in 12 Std. Regen
Sa, 19.10. 14:00 4 l/m2 in 6 Std. Regen
Sa, 19.10. 8:00 10 l/m2 in 12 Std. Regen
Sa, 19.10. 2:00 2 l/m2 in 6 Std. Regen
Ortszeit Niederschlagsmenge Niederschlagsart
So, 20.10. 23:00 0.1 l/m2 in 1 Std. Regen
So, 20.10. 22:50 keine Meldung -
So, 20.10. 22:40 keine Meldung -
So, 20.10. 22:30 0.0 l/m2 in 1 Std. -
So, 20.10. 22:20 keine Meldung -
So, 20.10. 22:10 keine Meldung -
So, 20.10. 22:00 0.0 l/m2 in 1 Std. -
So, 20.10. 21:30 0.0 l/m2 in 1 Std. -
So, 20.10. 21:00 0.0 l/m2 in 1 Std. -
So, 20.10. 20:30 0.0 l/m2 in 1 Std. -
So, 20.10. 20:00 0.0 l/m2 in 1 Std. -
Ortszeit Stärke Spitze Richtung
km/h Bft. km/h Grad Sektor
So, 20.10. 20:00 4 1 11 70° O
So, 20.10. 14:00 6 1 15 310° NW
So, 20.10. 8:00 0 0 11 - -
So, 20.10. 2:00 7 2 14 260° W
Sa, 19.10. 20:00 7 2 25 150° SO
Sa, 19.10. 14:00 4 1 40 20° N
Sa, 19.10. 8:00 22 4 36 160° S
Sa, 19.10. 2:00 9 2 26 150° SO
Ortszeit Stärke Spitze Richtung
km/h Bft. km/h Grad Sektor
So, 20.10. 23:00 13 3 20 260° W
So, 20.10. 22:50 13 3 - 260° W
So, 20.10. 22:40 13 3 - 260° W
So, 20.10. 22:30 7 2 11 270° W
So, 20.10. 22:20 7 2 - 270° W
So, 20.10. 22:10 4 1 - 230° SW
So, 20.10. 22:00 4 1 7 150° SO
So, 20.10. 21:30 4 1 7 230° SW
So, 20.10. 21:00 6 1 11 90° O
So, 20.10. 20:30 7 2 11 330° NW
So, 20.10. 20:00 4 1 11 70° O
Ortszeit Untergrenze Bedeckung Gattung
total tief tief mittel hoch
So, 20.10. 20:00 4200 m 8/8 6/8 - - -
So, 20.10. 14:00 3900 m 8/8 8/8 - - -
So, 20.10. 8:00 <30 m 8/8 0/8 - - -
So, 20.10. 2:00 30 m 7/8 7/8 - - -
Sa, 19.10. 20:00 2400 m 8/8 8/8 - - -
Sa, 19.10. 14:00 1800 m 8/8 2/8 - - -
Sa, 19.10. 8:00 1500 m 8/8 8/8 - - -
Sa, 19.10. 2:00 2100 m 8/8 8/8 - - -
Ortszeit Bedeckungsgrad in Achtel und Wolkenuntergrenze
So, 20.10. 23:00 4(210m) 8(3300m) 8(4200m)
So, 20.10. 22:50 4(210m) 8(3300m) 8(4200m)
So, 20.10. 22:40 7(3300m) 8(4200m)
So, 20.10. 22:30 4(3300m) 8(3900m)
So, 20.10. 22:20 4(3300m) 8(3900m)
So, 20.10. 22:10 1(180m) 7(3900m)
So, 20.10. 22:00 5(150m) 7(4200m) 7(9000m)
So, 20.10. 21:30 8(150m) 8(3900m) 8(9000m)
So, 20.10. 21:00 3(150m) 8(3900m) 8(7800m)
So, 20.10. 20:30 7(3900m) 8(8400m) 8(9000m)
So, 20.10. 20:00 6(4200m) 8(7800m) 8(9000m)
Ortszeit Luftdruck NN (hPa) Tendenz (hPa in 3 Std.)
So, 20.10. 20:00 1007 - 0,1
So, 20.10. 14:00 1007 - 0,2
So, 20.10. 8:00 1009 + 0,1
So, 20.10. 2:00 1009 - 0,8
Sa, 19.10. 20:00 1009 - 0,1
Sa, 19.10. 14:00 1009 - 1,4
Sa, 19.10. 8:00 1010 - 0,6
Sa, 19.10. 2:00 1012 - 1,2
Ortszeit Luftdruck NN (hPa) Tendenz (hPa in 3 Std.)
So, 20.10. 23:00 1012 + 4,4
So, 20.10. 22:50 1012 keine Meldung
So, 20.10. 22:40 1011 keine Meldung
So, 20.10. 22:30 1009 + 1,2
So, 20.10. 22:20 1009 keine Meldung
So, 20.10. 22:10 1009 keine Meldung
So, 20.10. 22:00 1008 + 0,6
So, 20.10. 21:30 1008 + 0,9
So, 20.10. 21:00 1008 + 0,4
So, 20.10. 20:30 1008 + 0,3
So, 20.10. 20:00 1007 - 0,1
Ortszeit Schneehöhe (cm)
So, 20.10. 20:00 0
So, 20.10. 14:00 0
So, 20.10. 8:00 0
So, 20.10. 2:00 0
Sa, 19.10. 20:00 0
Sa, 19.10. 14:00 0
Sa, 19.10. 8:00 0
Sa, 19.10. 2:00 0
Ortszeit Schneehöhe (cm)
So, 20.10. 23:00 0
So, 20.10. 22:50 0
So, 20.10. 22:40 0
So, 20.10. 22:30 0
So, 20.10. 22:20 0
So, 20.10. 22:10 0
So, 20.10. 22:00 0
So, 20.10. 21:30 0
So, 20.10. 21:00 0
So, 20.10. 20:30 0
So, 20.10. 20:00 0
Link zu dieser Seite / Seite empfehlen

Das Wetter in ...